Terminal Aerodrome Forecast
Issued by NWS

Home | Current Version | Previous Version | Text Only | Print | Product List | Glossary On
Versions: 1 2 3 4 5 6 7 8 9 10 11 12 13 14 15
000
FTUS46 KSEW 180525
TAFBFI
TAF
KBFI 180525Z 1806/1906 15005KT 4SM -RA BR SCT010 OVC035
      TEMPO 1806/1808 2SM RA BR BKN010 OVC030
     FM181800 18012G20KT P6SM -SHRA BKN030 OVC050
     FM190300 16008KT P6SM -SHRA BKN015 OVC030=

USA.gov is the U.S. government's official web portal to all federal, state and local government web resources and services.